Time;durP1;ratioP1;P1;durP2;ratioP2;P2;SDS_P1;SDS_P2;PMS_P1;PMS_P2;Temp;Humidity;BMP_temperature;BMP_pressure;BME280_temperature;BME280_humidity;BME280_pressure;Samples;Min_cycle;Max_cycle;Signal;HPM_P1;HPM_P2
2024/01/27 00:00:26;;;;;;;2.08;1.00;;;;;;;;;;4976051;28;20493;-91
2024/01/27 00:02:57;;;;;;;3.97;1.48;;;;;;;;;;4943202;28;20132;-88
2024/01/27 00:05:41;;;;;;;3.08;1.10;;;;;;;;;;4963882;28;20039;-89
2024/01/27 00:08:52;;;;;;;3.45;1.20;;;;;;;;;;4953858;29;20055;-87
2024/01/27 00:11:29;;;;;;;4.70;1.42;;;;;;;;;;4929538;29;20051;-87
2024/01/27 00:13:59;;;;;;;2.45;1.00;;;;;;;;;;4957828;28;20047;-86
2024/01/27 00:16:29;;;;;;;3.53;1.30;;;;;;;;;;4945711;29;20055;-86
2024/01/27 00:18:59;;;;;;;5.53;1.27;;;;;;;;;;4918004;29;20079;-86
2024/01/27 00:21:31;;;;;;;7.07;1.60;;;;;;;;;;4925467;29;20506;-85
2024/01/27 00:24:03;;;;;;;13.40;2.20;;;;;;;;;;4913651;29;20055;-86
2024/01/27 00:26:34;;;;;;;3.95;1.10;;;;;;;;;;4929445;29;20067;-86
2024/01/27 00:29:04;;;;;;;3.60;1.20;;;;;;;;;;4941541;29;20060;-86
2024/01/27 00:31:39;;;;;;;6.13;1.23;;;;;;;;;;4946581;29;20059;-85
2024/01/27 00:34:35;;;;;;;2.55;0.85;;;;;;;;;;4925035;29;20055;-87
2024/01/27 00:37:25;;;;;;;6.10;1.02;;;;;;;;;;4937370;29;20060;-85
2024/01/27 00:40:33;;;;;;;5.18;0.98;;;;;;;;;;4910301;29;20052;-84
2024/01/27 00:43:53;;;;;;;2.97;1.10;;;;;;;;;;4905054;29;20056;-87
2024/01/27 00:46:26;;;;;;;2.17;1.05;;;;;;;;;;4908022;29;20044;-87
2024/01/27 00:48:57;;;;;;;3.95;1.25;;;;;;;;;;4887366;29;20052;-86
2024/01/27 00:51:30;;;;;;;3.67;0.80;;;;;;;;;;4900781;29;20052;-87
2024/01/27 00:54:00;;;;;;;4.22;0.98;;;;;;;;;;4918881;29;20418;-88
2024/01/27 00:56:30;;;;;;;6.03;1.10;;;;;;;;;;4920672;29;20442;-89
2024/01/27 00:59:00;;;;;;;4.15;1.08;;;;;;;;;;4903161;29;20515;-87
2024/01/27 01:01:32;;;;;;;2.60;1.02;;;;;;;;;;4894345;29;20499;-87
2024/01/27 01:04:02;;;;;;;2.97;1.27;;;;;;;;;;4898063;29;20530;-86
2024/01/27 01:06:32;;;;;;;4.22;1.20;;;;;;;;;;4901423;29;20067;-87
2024/01/27 01:09:05;;;;;;;3.85;1.00;;;;;;;;;;4908082;29;20048;-85
2024/01/27 01:11:48;;;;;;;6.38;1.30;;;;;;;;;;4893233;29;20064;-87
2024/01/27 01:14:23;;;;;;;3.47;1.27;;;;;;;;;;4919015;29;20083;-87
2024/01/27 01:16:55;;;;;;;3.72;0.93;;;;;;;;;;4913807;29;20059;-86
2024/01/27 01:19:26;;;;;;;3.63;0.95;;;;;;;;;;4956805;29;20386;-85
2024/01/27 01:21:57;;;;;;;4.30;1.25;;;;;;;;;;4940094;29;20047;-86
2024/01/27 01:24:27;;;;;;;3.88;1.02;;;;;;;;;;4922731;29;20070;-86
2024/01/27 01:26:57;;;;;;;4.03;0.95;;;;;;;;;;4939526;29;20062;-88
2024/01/27 01:29:27;;;;;;;2.97;0.63;;;;;;;;;;4957235;29;20074;-86
2024/01/27 01:31:57;;;;;;;3.92;0.95;;;;;;;;;;4940353;29;20066;-87
2024/01/27 01:34:28;;;;;;;3.47;1.25;;;;;;;;;;4956548;29;20513;-87
2024/01/27 01:37:01;;;;;;;2.75;1.00;;;;;;;;;;4946408;29;20473;-88
2024/01/27 01:39:32;;;;;;;4.05;1.08;;;;;;;;;;4939551;29;20524;-86
2024/01/27 01:42:02;;;;;;;3.80;1.42;;;;;;;;;;4957295;29;20051;-84
2024/01/27 01:44:32;;;;;;;2.90;0.90;;;;;;;;;;4939045;29;20059;-84
2024/01/27 01:47:03;;;;;;;3.75;1.13;;;;;;;;;;4956929;29;20102;-85
2024/01/27 01:49:33;;;;;;;5.22;1.38;;;;;;;;;;4956923;29;20046;-84
2024/01/27 01:52:04;;;;;;;2.17;1.15;;;;;;;;;;4940332;29;20047;-85
2024/01/27 01:54:35;;;;;;;3.25;1.20;;;;;;;;;;4939609;29;20514;-87
2024/01/27 01:57:06;;;;;;;3.47;1.00;;;;;;;;;;4940818;29;20056;-87
2024/01/27 01:59:40;;;;;;;4.72;1.15;;;;;;;;;;4957123;29;20390;-84
2024/01/27 02:02:12;;;;;;;2.88;1.10;;;;;;;;;;4940302;29;20058;-86
2024/01/27 02:04:46;;;;;;;3.67;0.95;;;;;;;;;;4957262;29;20039;-84
2024/01/27 02:07:17;;;;;;;2.75;0.90;;;;;;;;;;4956963;29;20047;-83
2024/01/27 02:09:47;;;;;;;7.70;1.50;;;;;;;;;;4939474;29;20055;-83
2024/01/27 02:12:17;;;;;;;2.65;0.90;;;;;;;;;;4940498;29;20061;-83
2024/01/27 02:14:47;;;;;;;3.83;1.15;;;;;;;;;;4940743;29;20066;-85
2024/01/27 02:17:18;;;;;;;3.50;0.88;;;;;;;;;;4954549;29;20051;-85
2024/01/27 02:19:50;;;;;;;2.80;1.23;;;;;;;;;;4953442;28;20051;-84
2024/01/27 02:22:20;;;;;;;2.90;1.00;;;;;;;;;;4960183;28;20055;-84
2024/01/27 02:24:50;;;;;;;3.47;1.15;;;;;;;;;;4969529;29;20043;-85
2024/01/27 02:27:20;;;;;;;5.38;1.20;;;;;;;;;;4964573;29;20055;-83
2024/01/27 02:29:52;;;;;;;2.28;1.00;;;;;;;;;;4957388;29;20420;-83
2024/01/27 02:32:22;;;;;;;4.07;1.23;;;;;;;;;;4958817;29;20058;-84
2024/01/27 02:34:52;;;;;;;3.58;1.30;;;;;;;;;;4941484;29;20051;-84
2024/01/27 02:37:23;;;;;;;3.67;1.15;;;;;;;;;;4956741;29;20058;-84
2024/01/27 02:39:53;;;;;;;2.53;1.25;;;;;;;;;;4938844;29;20055;-85
2024/01/27 02:42:23;;;;;;;3.20;1.10;;;;;;;;;;4955951;29;20047;-84
2024/01/27 02:44:56;;;;;;;2.78;1.00;;;;;;;;;;4922967;29;20051;-85
2024/01/27 02:47:26;;;;;;;3.65;1.25;;;;;;;;;;4956039;29;20055;-85
2024/01/27 02:49:57;;;;;;;5.22;1.33;;;;;;;;;;4938265;29;20055;-85
2024/01/27 02:52:27;;;;;;;5.50;2.33;;;;;;;;;;4956366;29;20375;-87
2024/01/27 02:55:00;;;;;;;4.93;1.13;;;;;;;;;;4922852;29;20051;-87
2024/01/27 02:57:31;;;;;;;5.18;1.33;;;;;;;;;;4938606;29;20047;-85
2024/01/27 03:00:02;;;;;;;3.75;1.50;;;;;;;;;;4938704;29;20055;-85
2024/01/27 03:02:33;;;;;;;2.75;1.00;;;;;;;;;;4956023;29;20389;-86
2024/01/27 03:05:03;;;;;;;4.13;1.30;;;;;;;;;;4938499;29;20055;-86
2024/01/27 03:07:35;;;;;;;3.80;1.13;;;;;;;;;;4955447;29;20062;-86
2024/01/27 03:10:06;;;;;;;4.35;1.38;;;;;;;;;;4955391;29;20043;-84
2024/01/27 03:12:36;;;;;;;2.80;1.50;;;;;;;;;;4937734;29;20058;-85
2024/01/27 03:15:08;;;;;;;5.75;1.20;;;;;;;;;;4955645;29;20366;-85
2024/01/27 03:17:40;;;;;;;4.80;1.20;;;;;;;;;;4937167;29;20067;-86
2024/01/27 03:20:11;;;;;;;2.63;1.30;;;;;;;;;;4937879;29;20055;-85
2024/01/27 03:22:41;;;;;;;3.55;1.30;;;;;;;;;;4937554;29;20043;-86
2024/01/27 03:25:13;;;;;;;5.95;1.38;;;;;;;;;;4955177;29;20058;-86
2024/01/27 03:27:45;;;;;;;3.53;1.30;;;;;;;;;;4938450;29;20047;-85
2024/01/27 03:30:16;;;;;;;2.83;1.20;;;;;;;;;;4937450;29;20055;-85
2024/01/27 03:32:46;;;;;;;3.78;1.38;;;;;;;;;;4935890;29;20433;-85
2024/01/27 03:35:18;;;;;;;2.85;1.20;;;;;;;;;;4936077;29;20054;-85
2024/01/27 03:37:49;;;;;;;3.97;1.40;;;;;;;;;;4918488;29;20055;-87
2024/01/27 03:40:19;;;;;;;4.70;1.35;;;;;;;;;;4936201;29;20054;-85
2024/01/27 03:42:49;;;;;;;4.72;1.52;;;;;;;;;;4935759;29;20052;-86
2024/01/27 03:45:19;;;;;;;6.63;2.35;;;;;;;;;;4970545;28;20070;-84
2024/01/27 03:48:04;;;;;;;4.10;1.75;;;;;;;;;;4946358;28;20072;-87
2024/01/27 03:50:34;;;;;;;3.65;1.70;;;;;;;;;;4979677;28;20043;-86
2024/01/27 03:53:06;;;;;;;4.88;1.80;;;;;;;;;;4960181;28;20516;-86
2024/01/27 03:55:35;;;;;;;7.65;1.85;;;;;;;;;;4979210;28;20058;-84
2024/01/27 03:58:06;;;;;;;4.22;1.75;;;;;;;;;;4979512;28;20043;-85
2024/01/27 04:00:37;;;;;;;4.93;1.52;;;;;;;;;;4960794;28;20501;-85
2024/01/27 04:03:10;;;;;;;4.53;1.42;;;;;;;;;;4978084;28;20046;-85
2024/01/27 04:05:40;;;;;;;7.15;2.03;;;;;;;;;;4960025;28;20051;-85
2024/01/27 04:08:11;;;;;;;4.20;1.30;;;;;;;;;;4977468;28;20069;-86
2024/01/27 04:10:42;;;;;;;4.32;1.52;;;;;;;;;;4960629;28;20047;-85
2024/01/27 04:13:15;;;;;;;3.80;1.48;;;;;;;;;;4959852;28;20062;-85
2024/01/27 04:15:46;;;;;;;5.10;2.15;;;;;;;;;;4960867;28;20055;-86
2024/01/27 04:18:17;;;;;;;9.63;1.92;;;;;;;;;;4960839;28;20051;-86
2024/01/27 04:20:49;;;;;;;7.60;1.88;;;;;;;;;;4961637;28;20047;-86
2024/01/27 04:23:19;;;;;;;4.07;1.67;;;;;;;;;;4960792;28;20047;-85
2024/01/27 04:25:49;;;;;;;5.28;2.13;;;;;;;;;;4959917;28;20359;-86
2024/01/27 04:28:20;;;;;;;3.25;1.55;;;;;;;;;;4960841;28;20058;-86
2024/01/27 04:30:53;;;;;;;3.95;1.65;;;;;;;;;;4977223;28;20051;-85
2024/01/27 04:33:22;;;;;;;3.92;1.73;;;;;;;;;;4944126;28;20051;-86
2024/01/27 04:35:52;;;;;;;7.80;1.83;;;;;;;;;;4959424;28;20066;-85
2024/01/27 04:38:24;;;;;;;5.85;1.80;;;;;;;;;;4960279;28;20055;-87
2024/01/27 04:40:58;;;;;;;5.65;1.77;;;;;;;;;;4959947;28;20370;-85
2024/01/27 04:43:29;;;;;;;5.97;1.88;;;;;;;;;;4959557;28;20055;-85
2024/01/27 04:45:59;;;;;;;3.70;1.50;;;;;;;;;;4959469;28;20065;-85
2024/01/27 04:48:31;;;;;;;3.38;1.80;;;;;;;;;;4977370;28;20043;-86
2024/01/27 04:51:01;;;;;;;4.85;1.90;;;;;;;;;;4959894;28;20055;-87
2024/01/27 04:53:32;;;;;;;4.65;1.70;;;;;;;;;;4977796;28;20477;-87
2024/01/27 04:56:07;;;;;;;4.80;1.60;;;;;;;;;;4960105;28;20229;-86
2024/01/27 04:58:38;;;;;;;11.93;2.40;;;;;;;;;;4960578;28;20409;-87
2024/01/27 05:01:09;;;;;;;7.00;2.10;;;;;;;;;;4959632;28;20051;-85
2024/01/27 05:03:40;;;;;;;4.05;1.80;;;;;;;;;;4944058;28;20047;-85
2024/01/27 05:06:11;;;;;;;4.97;1.65;;;;;;;;;;4960227;28;20047;-84
2024/01/27 05:08:42;;;;;;;3.70;1.70;;;;;;;;;;4976739;28;20055;-87
2024/01/27 05:11:13;;;;;;;3.55;1.60;;;;;;;;;;4976054;28;20059;-88
2024/01/27 05:13:44;;;;;;;3.80;1.67;;;;;;;;;;4959226;28;20051;-86
2024/01/27 05:16:15;;;;;;;4.35;1.73;;;;;;;;;;4978219;28;20046;-83
2024/01/27 05:18:46;;;;;;;5.00;1.80;;;;;;;;;;4966878;28;20508;-82
2024/01/27 05:21:16;;;;;;;6.75;1.63;;;;;;;;;;4967593;28;20046;-83
2024/01/27 05:23:47;;;;;;;5.50;1.90;;;;;;;;;;4983815;28;20051;-82
2024/01/27 05:26:19;;;;;;;7.38;1.90;;;;;;;;;;4976976;28;20047;-85
2024/01/27 05:28:50;;;;;;;8.10;2.03;;;;;;;;;;4959764;28;20066;-86
2024/01/27 05:31:22;;;;;;;5.47;1.67;;;;;;;;;;4976345;28;20042;-86
2024/01/27 05:33:52;;;;;;;4.45;1.70;;;;;;;;;;4976882;28;20045;-84
2024/01/27 05:36:23;;;;;;;8.65;1.85;;;;;;;;;;4976592;28;20062;-84
2024/01/27 05:38:54;;;;;;;6.90;2.10;;;;;;;;;;4976239;28;20108;-85
2024/01/27 05:41:31;;;;;;;4.13;1.98;;;;;;;;;;4959283;28;20062;-84
2024/01/27 05:44:01;;;;;;;5.00;1.92;;;;;;;;;;4959247;28;20490;-85
2024/01/27 05:46:31;;;;;;;7.00;2.33;;;;;;;;;;4976496;28;20049;-84
2024/01/27 05:49:02;;;;;;;4.32;1.95;;;;;;;;;;4958453;28;20051;-84
2024/01/27 05:51:35;;;;;;;5.05;2.00;;;;;;;;;;4958683;28;20050;-85
2024/01/27 05:54:07;;;;;;;8.70;2.10;;;;;;;;;;4942510;28;20054;-85
2024/01/27 05:56:38;;;;;;;5.85;1.80;;;;;;;;;;4975751;28;20058;-84
2024/01/27 05:59:08;;;;;;;4.85;1.75;;;;;;;;;;4959710;28;20362;-85
2024/01/27 06:01:40;;;;;;;3.55;1.63;;;;;;;;;;4959406;28;20043;-85
2024/01/27 06:04:14;;;;;;;8.55;1.80;;;;;;;;;;4958842;28;20047;-86
2024/01/27 06:06:45;;;;;;;6.65;1.77;;;;;;;;;;4958241;28;20046;-86
2024/01/27 06:09:16;;;;;;;6.80;1.65;;;;;;;;;;4959134;28;20047;-86
2024/01/27 06:11:48;;;;;;;4.97;1.55;;;;;;;;;;4958697;28;20512;-83
2024/01/27 06:14:18;;;;;;;6.75;1.90;;;;;;;;;;4942479;28;20062;-85
2024/01/27 06:16:51;;;;;;;5.57;1.70;;;;;;;;;;4959068;28;20047;-85
2024/01/27 06:19:21;;;;;;;5.35;1.85;;;;;;;;;;4975680;28;20512;-85
2024/01/27 06:21:54;;;;;;;3.67;1.63;;;;;;;;;;4959355;28;20046;-86
2024/01/27 06:24:25;;;;;;;4.07;2.20;;;;;;;;;;4942372;28;20074;-86
2024/01/27 06:26:56;;;;;;;7.55;1.70;;;;;;;;;;4958953;28;20047;-86
2024/01/27 06:29:26;;;;;;;5.63;1.73;;;;;;;;;;4975818;28;20047;-89
2024/01/27 06:31:57;;;;;;;4.07;1.98;;;;;;;;;;4958070;28;20059;-86
2024/01/27 06:34:28;;;;;;;3.80;2.03;;;;;;;;;;4959665;28;20050;-86
2024/01/27 06:37:01;;;;;;;3.80;2.00;;;;;;;;;;4975658;28;20043;-88
2024/01/27 06:39:32;;;;;;;6.10;2.20;;;;;;;;;;4959018;28;20073;-87
2024/01/27 06:42:03;;;;;;;5.78;2.10;;;;;;;;;;4957885;28;20070;-85
2024/01/27 06:44:34;;;;;;;5.80;2.03;;;;;;;;;;4958620;28;20057;-86
2024/01/27 06:47:05;;;;;;;5.60;1.95;;;;;;;;;;4975394;28;20047;-86
2024/01/27 06:49:35;;;;;;;6.25;1.63;;;;;;;;;;4974912;28;20054;-86
2024/01/27 06:52:08;;;;;;;7.22;1.70;;;;;;;;;;4941781;28;20053;-86
2024/01/27 06:54:43;;;;;;;5.97;2.10;;;;;;;;;;4975139;28;20058;-86
2024/01/27 06:57:24;;;;;;;6.05;2.03;;;;;;;;;;4957349;28;20055;-86
2024/01/27 06:59:55;;;;;;;11.52;2.30;;;;;;;;;;4974700;28;20069;-85
2024/01/27 07:02:26;;;;;;;7.50;2.50;;;;;;;;;;4957593;28;20055;-84
2024/01/27 07:04:58;;;;;;;9.05;2.63;;;;;;;;;;4974977;28;20047;-83
2024/01/27 07:07:28;;;;;;;5.57;2.80;;;;;;;;;;4974591;28;20465;-84
2024/01/27 07:09:58;;;;;;;7.15;2.63;;;;;;;;;;4974691;28;20065;-87
2024/01/27 07:12:29;;;;;;;8.80;2.72;;;;;;;;;;4956703;28;20050;-85
2024/01/27 07:15:01;;;;;;;10.02;2.33;;;;;;;;;;4974919;28;20050;-85
2024/01/27 07:17:31;;;;;;;7.32;2.55;;;;;;;;;;4974725;28;20054;-85
2024/01/27 07:20:01;;;;;;;5.53;2.10;;;;;;;;;;4975495;28;20453;-85
2024/01/27 07:22:31;;;;;;;6.00;2.05;;;;;;;;;;4975111;28;20046;-86
2024/01/27 07:25:01;;;;;;;6.78;2.35;;;;;;;;;;4974734;28;20050;-86
2024/01/27 07:27:31;;;;;;;4.50;2.35;;;;;;;;;;4941315;28;20050;-86
2024/01/27 07:30:02;;;;;;;6.50;2.15;;;;;;;;;;4975093;28;20330;-86
2024/01/27 07:32:33;;;;;;;5.93;1.98;;;;;;;;;;4974462;28;20051;-86
2024/01/27 07:35:05;;;;;;;9.68;2.53;;;;;;;;;;4974384;28;20034;-85
2024/01/27 07:37:36;;;;;;;6.00;2.25;;;;;;;;;;4956637;28;20065;-85
2024/01/27 07:40:08;;;;;;;14.73;2.33;;;;;;;;;;4956526;28;20062;-84
2024/01/27 07:42:38;;;;;;;8.35;2.72;;;;;;;;;;4955946;28;20072;-85
2024/01/27 07:45:09;;;;;;;11.82;2.90;;;;;;;;;;4952780;29;20058;-84
2024/01/27 07:47:39;;;;;;;5.30;2.53;;;;;;;;;;4955872;29;20043;-84
2024/01/27 07:50:10;;;;;;;6.20;2.20;;;;;;;;;;4955160;29;20043;-85
2024/01/27 07:52:39;;;;;;;3.83;2.20;;;;;;;;;;4954927;29;20051;-85
2024/01/27 07:55:10;;;;;;;4.30;2.10;;;;;;;;;;4953772;29;20040;-83
2024/01/27 07:57:40;;;;;;;7.70;2.22;;;;;;;;;;4952890;29;20163;-84
2024/01/27 08:00:12;;;;;;;7.85;2.50;;;;;;;;;;4954597;29;20058;-83
2024/01/27 08:02:42;;;;;;;4.20;2.20;;;;;;;;;;4953107;29;20050;-82
2024/01/27 08:05:14;;;;;;;4.30;2.38;;;;;;;;;;4953631;29;20490;-83
2024/01/27 08:07:49;;;;;;;5.72;2.08;;;;;;;;;;4953049;29;20058;-83
2024/01/27 08:10:19;;;;;;;4.05;1.83;;;;;;;;;;4953523;29;20405;-83
2024/01/27 08:12:49;;;;;;;6.03;1.92;;;;;;;;;;4937289;29;20047;-83
2024/01/27 08:15:19;;;;;;;6.75;2.33;;;;;;;;;;4952966;29;20047;-82
2024/01/27 08:17:50;;;;;;;4.70;2.15;;;;;;;;;;4937378;29;20047;-82
2024/01/27 08:20:20;;;;;;;5.55;2.25;;;;;;;;;;4955253;29;20486;-83
2024/01/27 08:22:51;;;;;;;8.32;3.85;;;;;;;;;;4954260;29;20414;-83
2024/01/27 08:25:21;;;;;;;4.85;2.20;;;;;;;;;;4952228;29;20059;-84
2024/01/27 08:27:51;;;;;;;6.38;2.22;;;;;;;;;;4952271;29;20102;-84
2024/01/27 08:30:21;;;;;;;6.15;2.40;;;;;;;;;;4951224;29;20067;-83
2024/01/27 08:32:52;;;;;;;3.47;1.80;;;;;;;;;;4952091;28;20050;-83
2024/01/27 08:35:27;;;;;;;4.30;2.20;;;;;;;;;;4938788;29;20052;-84
2024/01/27 08:37:58;;;;;;;7.60;2.15;;;;;;;;;;4954594;29;20055;-85
2024/01/27 08:40:28;;;;;;;3.53;1.88;;;;;;;;;;4937528;29;20054;-83
2024/01/27 08:42:58;;;;;;;4.88;1.92;;;;;;;;;;4937798;29;20051;-83
2024/01/27 08:45:28;;;;;;;6.82;2.40;;;;;;;;;;4957825;29;20070;-83
2024/01/27 08:47:59;;;;;;;5.30;2.08;;;;;;;;;;4958157;29;20047;-83
2024/01/27 08:50:31;;;;;;;5.10;2.08;;;;;;;;;;4957980;29;20051;-83
2024/01/27 08:53:02;;;;;;;4.93;1.92;;;;;;;;;;4957687;29;20039;-82
2024/01/27 08:55:31;;;;;;;8.90;2.30;;;;;;;;;;4956910;29;20051;-83
2024/01/27 08:58:02;;;;;;;4.43;1.80;;;;;;;;;;4957410;29;20047;-82
2024/01/27 09:00:32;;;;;;;8.75;2.63;;;;;;;;;;4940496;29;20064;-83
2024/01/27 09:03:03;;;;;;;10.35;2.30;;;;;;;;;;4923595;29;20051;-83
2024/01/27 09:05:33;;;;;;;7.07;1.75;;;;;;;;;;4958193;29;20051;-83
2024/01/27 09:08:03;;;;;;;7.00;2.10;;;;;;;;;;4939199;29;20047;-83
2024/01/27 09:10:34;;;;;;;7.68;2.35;;;;;;;;;;4957206;29;20087;-83
2024/01/27 09:13:07;;;;;;;8.85;1.83;;;;;;;;;;4957064;29;20047;-83
2024/01/27 09:15:38;;;;;;;7.82;1.77;;;;;;;;;;4957368;29;20059;-83
2024/01/27 09:18:08;;;;;;;6.15;1.67;;;;;;;;;;4957693;29;20044;-84
2024/01/27 09:20:39;;;;;;;3.97;1.60;;;;;;;;;;4957118;29;20047;-84
2024/01/27 09:23:08;;;;;;;5.28;1.83;;;;;;;;;;4940864;29;20402;-84
2024/01/27 09:25:39;;;;;;;5.78;1.90;;;;;;;;;;4957252;29;20055;-84
2024/01/27 09:28:12;;;;;;;8.02;2.15;;;;;;;;;;4957497;29;20050;-84
2024/01/27 09:30:43;;;;;;;4.05;1.67;;;;;;;;;;4940205;29;20054;-84
2024/01/27 09:33:13;;;;;;;7.25;1.70;;;;;;;;;;4957138;29;20512;-84
2024/01/27 09:35:43;;;;;;;4.13;1.33;;;;;;;;;;4940133;29;20047;-83
2024/01/27 09:38:14;;;;;;;4.00;1.80;;;;;;;;;;4940700;29;20047;-83
2024/01/27 09:40:45;;;;;;;2.88;1.30;;;;;;;;;;4956679;29;20043;-83
2024/01/27 09:43:18;;;;;;;6.78;1.40;;;;;;;;;;4938803;29;20058;-83
2024/01/27 09:45:48;;;;;;;3.67;1.40;;;;;;;;;;4956349;28;20043;-83
2024/01/27 09:48:18;;;;;;;4.35;1.20;;;;;;;;;;4938963;29;20453;-83
2024/01/27 09:50:49;;;;;;;3.65;1.27;;;;;;;;;;4956298;29;20417;-84
2024/01/27 09:53:20;;;;;;;2.85;1.60;;;;;;;;;;4956842;29;20065;-86
2024/01/27 09:55:51;;;;;;;6.15;1.30;;;;;;;;;;4957052;29;20035;-84
2024/01/27 09:58:23;;;;;;;;;;;;;;;;;;4939641;29;20051;-86
2024/01/27 10:00:55;;;;;;;4.75;1.10;;;;;;;;;;4956392;29;19922;-86
2024/01/27 10:03:28;;;;;;;2.28;1.17;;;;;;;;;;4956866;29;20055;-86
2024/01/27 10:06:01;;;;;;;3.45;1.10;;;;;;;;;;4956514;29;20044;-83
2024/01/27 10:08:31;;;;;;;;;;;;;;;;;;4956852;29;20051;-84
2024/01/27 10:11:08;;;;;;;2.95;1.30;;;;;;;;;;4946839;29;19922;-83
2024/01/27 10:13:40;;;;;;;5.13;1.20;;;;;;;;;;4955328;29;20058;-84
2024/01/27 10:16:12;;;;;;;4.47;1.00;;;;;;;;;;4955165;29;20050;-82
2024/01/27 10:18:43;;;;;;;6.68;1.15;;;;;;;;;;4955243;29;20051;-82
2024/01/27 10:21:14;;;;;;;5.10;1.00;;;;;;;;;;4955579;29;20054;-83
2024/01/27 10:23:45;;;;;;;4.22;1.20;;;;;;;;;;4938429;29;20059;-85
2024/01/27 10:26:15;;;;;;;5.25;1.00;;;;;;;;;;4954630;29;20062;-83
2024/01/27 10:28:56;;;;;;;6.50;1.00;;;;;;;;;;4955238;29;20055;-83
2024/01/27 10:31:39;;;;;;;3.95;0.90;;;;;;;;;;4922024;29;20052;-82
2024/01/27 10:34:14;;;;;;;3.00;0.93;;;;;;;;;;4954976;29;20051;-83
2024/01/27 10:36:46;;;;;;;2.33;1.20;;;;;;;;;;4954863;29;20058;-83
2024/01/27 10:39:25;;;;;;;6.70;1.30;;;;;;;;;;4954926;29;20047;-83
2024/01/27 10:41:56;;;;;;;4.25;1.60;;;;;;;;;;4954723;29;20050;-83
2024/01/27 10:44:29;;;;;;;5.15;1.60;;;;;;;;;;4954835;29;20051;-82
2024/01/27 10:47:03;;;;;;;4.70;2.13;;;;;;;;;;4954960;29;20520;-85
2024/01/27 10:49:36;;;;;;;8.77;2.30;;;;;;;;;;4955016;29;20509;-83
2024/01/27 10:52:11;;;;;;;9.65;2.63;;;;;;;;;;4954568;29;20054;-82
2024/01/27 10:54:43;;;;;;;6.32;2.60;;;;;;;;;;4954738;29;20047;-84
2024/01/27 10:57:15;;;;;;;5.55;2.42;;;;;;;;;;4954179;28;20058;-83
2024/01/27 10:59:49;;;;;;;6.43;2.90;;;;;;;;;;4954827;29;20058;-83
2024/01/27 11:02:20;;;;;;;3.13;1.25;;;;;;;;;;4954092;29;20050;-84
2024/01/27 11:04:54;;;;;;;6.22;1.40;;;;;;;;;;4961854;28;20047;-82
2024/01/27 11:07:26;;;;;;;3.97;1.30;;;;;;;;;;4960376;28;20058;-84
2024/01/27 11:09:57;;;;;;;4.65;1.00;;;;;;;;;;4943504;28;20047;-85
2024/01/27 11:12:29;;;;;;;4.50;0.90;;;;;;;;;;4940378;29;20050;-84
2024/01/27 11:14:59;;;;;;;2.13;0.93;;;;;;;;;;4954180;29;20421;-84
2024/01/27 11:17:42;;;;;;;2.13;0.80;;;;;;;;;;4936731;29;20058;-83
2024/01/27 11:20:15;;;;;;;6.05;0.80;;;;;;;;;;4954539;29;20501;-82
2024/01/27 11:22:46;;;;;;;2.03;0.70;;;;;;;;;;4954576;29;20039;-83
2024/01/27 11:25:19;;;;;;;3.13;0.73;;;;;;;;;;4954397;29;20051;-85
2024/01/27 11:27:51;;;;;;;4.45;0.80;;;;;;;;;;4954250;29;20371;-83
2024/01/27 11:30:37;;;;;;;4.38;0.80;;;;;;;;;;4954162;29;20598;-84
2024/01/27 11:33:08;;;;;;;3.78;0.60;;;;;;;;;;4936894;29;20055;-83
2024/01/27 11:35:40;;;;;;;3.50;0.70;;;;;;;;;;4954693;29;20054;-87
2024/01/27 11:38:10;;;;;;;3.13;0.60;;;;;;;;;;4935782;29;20409;-87
2024/01/27 11:40:46;;;;;;;3.25;1.05;;;;;;;;;;4945420;28;20050;-85
2024/01/27 11:43:16;;;;;;;4.35;1.05;;;;;;;;;;4965403;28;20039;-85
2024/01/27 11:46:00;;;;;;;3.63;0.77;;;;;;;;;;4945614;28;20066;-85
2024/01/27 11:48:30;;;;;;;7.00;0.80;;;;;;;;;;4972936;28;20050;-86
2024/01/27 11:51:11;;;;;;;4.03;0.68;;;;;;;;;;4954383;28;20059;-84
2024/01/27 11:53:42;;;;;;;2.05;0.60;;;;;;;;;;4962875;28;20043;-85
2024/01/27 11:56:12;;;;;;;4.22;0.88;;;;;;;;;;4957151;28;20043;-85
2024/01/27 11:58:51;;;;;;;2.75;0.70;;;;;;;;;;4961973;28;20524;-83
2024/01/27 12:01:21;;;;;;;3.03;0.77;;;;;;;;;;4961954;28;20035;-84
2024/01/27 12:03:52;;;;;;;4.78;0.60;;;;;;;;;;4944376;28;20043;-84
2024/01/27 12:06:23;;;;;;;5.30;0.60;;;;;;;;;;4944032;28;20050;-85
2024/01/27 12:08:55;;;;;;;2.10;0.40;;;;;;;;;;4960345;28;20046;-85
2024/01/27 12:11:26;;;;;;;2.25;0.50;;;;;;;;;;4972858;28;20409;-84
2024/01/27 12:13:57;;;;;;;5.68;0.95;;;;;;;;;;4968685;28;20046;-85
2024/01/27 12:16:29;;;;;;;4.00;0.50;;;;;;;;;;4977047;28;20377;-85
2024/01/27 12:19:00;;;;;;;1.35;0.32;;;;;;;;;;4977195;28;20406;-84
2024/01/27 12:21:30;;;;;;;2.58;0.50;;;;;;;;;;4959857;28;20409;-82
2024/01/27 12:24:01;;;;;;;1.88;0.70;;;;;;;;;;4959239;28;20050;-85
2024/01/27 12:26:36;;;;;;;3.15;0.80;;;;;;;;;;4960455;28;20047;-84
2024/01/27 12:29:06;;;;;;;1.80;0.68;;;;;;;;;;4976735;28;20047;-85
2024/01/27 12:31:36;;;;;;;5.07;0.70;;;;;;;;;;4959965;28;20375;-86
2024/01/27 12:34:09;;;;;;;3.45;0.63;;;;;;;;;;4976727;28;20062;-85
2024/01/27 12:36:43;;;;;;;4.70;1.20;;;;;;;;;;4959609;28;20529;-83
2024/01/27 12:39:13;;;;;;;3.80;0.60;;;;;;;;;;4977237;28;20043;-82
2024/01/27 12:41:44;;;;;;;3.10;0.50;;;;;;;;;;4959911;28;20058;-83
2024/01/27 12:44:14;;;;;;;20.02;12.77;;;;;;;;;;4970878;28;20055;-84
2024/01/27 12:46:45;;;;;;;5.32;1.20;;;;;;;;;;4973210;28;20057;-84
2024/01/27 12:49:15;;;;;;;2.47;0.90;;;;;;;;;;4976660;28;20058;-84
2024/01/27 12:51:47;;;;;;;2.65;1.10;;;;;;;;;;4959526;28;20386;-85
2024/01/27 12:54:17;;;;;;;5.53;1.52;;;;;;;;;;4976687;28;20405;-85
2024/01/27 12:56:47;;;;;;;2.72;0.70;;;;;;;;;;4976814;28;20046;-85
2024/01/27 12:59:17;;;;;;;3.40;1.42;;;;;;;;;;4976638;28;20045;-84
2024/01/27 13:01:47;;;;;;;2.60;0.70;;;;;;;;;;4943903;28;20422;-88
2024/01/27 13:04:18;;;;;;;3.15;0.90;;;;;;;;;;4969521;28;20437;-86
2024/01/27 13:06:49;;;;;;;2.47;0.70;;;;;;;;;;4924635;29;20067;-87
2024/01/27 13:09:20;;;;;;;1.70;0.68;;;;;;;;;;4939161;29;20055;-87
2024/01/27 13:11:50;;;;;;;1.98;0.52;;;;;;;;;;4956965;29;20043;-86
2024/01/27 13:14:20;;;;;;;3.00;0.68;;;;;;;;;;4962071;28;20493;-84
2024/01/27 13:16:53;;;;;;;2.67;0.80;;;;;;;;;;4950316;29;20055;-85
2024/01/27 13:19:24;;;;;;;3.22;0.80;;;;;;;;;;4977104;28;20037;-85
2024/01/27 13:21:55;;;;;;;2.22;0.60;;;;;;;;;;4979425;28;20035;-83
2024/01/27 13:24:25;;;;;;;2.45;0.82;;;;;;;;;;4965776;28;20031;-84
2024/01/27 13:26:55;;;;;;;3.28;0.90;;;;;;;;;;4972585;29;20027;-85
2024/01/27 13:29:27;;;;;;;3.63;0.82;;;;;;;;;;4965353;29;20063;-84
2024/01/27 13:32:01;;;;;;;2.53;0.98;;;;;;;;;;4961395;28;20509;-84
2024/01/27 13:34:32;;;;;;;2.28;0.57;;;;;;;;;;4939829;29;20054;-85
2024/01/27 13:37:04;;;;;;;4.25;0.73;;;;;;;;;;4956630;29;20047;-84
2024/01/27 13:39:35;;;;;;;1.75;0.50;;;;;;;;;;4940581;29;20059;-84
2024/01/27 13:42:06;;;;;;;3.30;1.02;;;;;;;;;;4956632;29;20046;-85
2024/01/27 13:44:39;;;;;;;4.18;0.95;;;;;;;;;;4939476;29;20055;-84
2024/01/27 13:47:09;;;;;;;2.42;0.80;;;;;;;;;;4955897;29;20043;-84
2024/01/27 13:49:40;;;;;;;4.38;0.85;;;;;;;;;;4956339;29;20517;-85
2024/01/27 13:52:11;;;;;;;4.07;0.73;;;;;;;;;;4938752;29;20057;-84
2024/01/27 13:54:43;;;;;;;3.08;1.02;;;;;;;;;;4956711;29;20054;-85
2024/01/27 13:57:15;;;;;;;4.93;0.63;;;;;;;;;;4957479;29;20046;-85
2024/01/27 13:59:46;;;;;;;3.78;1.00;;;;;;;;;;4956345;29;20148;-84
2024/01/27 14:02:18;;;;;;;3.70;0.80;;;;;;;;;;4939859;29;20062;-85
2024/01/27 14:04:48;;;;;;;11.93;1.25;;;;;;;;;;4958531;28;20047;-86
2024/01/27 14:07:18;;;;;;;3.92;0.77;;;;;;;;;;4959253;28;20054;-88
2024/01/27 14:09:48;;;;;;;2.97;0.85;;;;;;;;;;4957301;29;20050;-86
2024/01/27 14:12:19;;;;;;;1.15;0.50;;;;;;;;;;4954825;29;20421;-86
2024/01/27 14:14:50;;;;;;;3.10;0.80;;;;;;;;;;4956136;29;20059;-85
2024/01/27 14:17:21;;;;;;;3.70;1.55;;;;;;;;;;4953807;29;20051;-84
2024/01/27 14:19:52;;;;;;;2.00;0.57;;;;;;;;;;4954044;29;20059;-86
2024/01/27 14:22:23;;;;;;;3.47;1.13;;;;;;;;;;4954268;29;20055;-87
2024/01/27 14:24:54;;;;;;;2.67;0.55;;;;;;;;;;4955152;29;20055;-87
2024/01/27 14:27:25;;;;;;;3.90;0.73;;;;;;;;;;4954525;29;20070;-87
2024/01/27 14:29:56;;;;;;;2.55;0.60;;;;;;;;;;4953937;29;20123;-85
2024/01/27 14:32:27;;;;;;;3.28;0.80;;;;;;;;;;4954830;28;20066;-86
2024/01/27 14:34:58;;;;;;;1.98;0.73;;;;;;;;;;4955291;29;20050;-88
2024/01/27 14:37:28;;;;;;;2.97;0.60;;;;;;;;;;4953845;29;20067;-86
2024/01/27 14:39:58;;;;;;;2.97;0.60;;;;;;;;;;4953786;29;20047;-87
2024/01/27 14:42:28;;;;;;;2.75;0.70;;;;;;;;;;4953713;29;20421;-85
2024/01/27 14:45:03;;;;;;;3.85;0.90;;;;;;;;;;4969513;28;20055;-86
2024/01/27 14:47:34;;;;;;;;;;;;;;;;;;4958454;28;20054;-85
2024/01/27 14:50:13;;;;;;;3.40;0.70;;;;;;;;;;4959773;28;19998;-87
2024/01/27 14:52:44;;;;;;;3.83;0.80;;;;;;;;;;4977267;28;20042;-85
2024/01/27 14:55:15;;;;;;;3.42;0.90;;;;;;;;;;4956482;28;20051;-85
2024/01/27 14:57:45;;;;;;;1.52;0.70;;;;;;;;;;4958417;28;20043;-85
2024/01/27 15:00:17;;;;;;;2.15;0.68;;;;;;;;;;4954659;29;20055;-88
2024/01/27 15:02:48;;;;;;;2.78;0.68;;;;;;;;;;4955247;29;20046;-83
2024/01/27 15:05:18;;;;;;;2.88;0.57;;;;;;;;;;4955229;28;20047;-87
2024/01/27 15:07:49;;;;;;;3.65;0.70;;;;;;;;;;4936955;29;20066;-85
2024/01/27 15:10:21;;;;;;;2.67;0.93;;;;;;;;;;4955318;29;20054;-85